NATURA VA

 INFORMACIÓN METAR y TAF
METAR FOR OBBI
ADDS - METARS form results

(0126 UTC 20 May 2019)
Data provider http://aviationweather.gov/metar/data/
 
METAR text: OBBI 200100Z VRB01KT CAVOK 27/20 Q1006 NOSIG
Conditions at: OBBI (BAHRAIN INTL ARP, BH) observed 0100 UTC 20 May 2019
Temperature: 27.0°C (81°F)
Dewpoint: 20.0°C (68°F) [RH = 66%]
Pressure (altimeter): 29.70 inches Hg (1006.0 mb)
Winds: variable direction winds at 1 MPH (1 knots; 0.5 m/s)
Visibility: 6 or more miles (10+ km)
Ceiling: ceiling and visibility are OK
Clouds: unknown
Weather: no significant weather observed at this time

METAR text: OBBI 200030Z VRB01KT CAVOK 28/20 Q1006 NOSIG
Conditions at: OBBI (BAHRAIN INTL ARP, BH) observed 0030 UTC 20 May 2019
Temperature: 28.0°C (82°F)
Dewpoint: 20.0°C (68°F) [RH = 62%]
Pressure (altimeter): 29.70 inches Hg (1006.0 mb)
Winds: variable direction winds at 1 MPH (1 knots; 0.5 m/s)
Visibility: 6 or more miles (10+ km)
Ceiling: ceiling and visibility are OK
Clouds: unknown
Weather: no significant weather observed at this time

Forecast for: OBBI (BAHRAIN INTL ARP, BH)
Text: TAF OBBI 192300Z 2000/2106 12010KT CAVOK
Forecast period: 0000 UTC 20 May 2019 to 0600 UTC 21 May 2019
Forecast type: FROM: standard forecast or significant change
Winds: from the ESE (120 degrees) at 12 MPH (10 knots; 5.1 m/s)
Visibility: 6 or more miles 10+ km)
Ceiling: unknown
Clouds: missing
Weather: NSW  (no significant weather)
Text: PROB30
Forecast period: 0900 to 1800 UTC 20 May 2019
Forecast type: TEMPORARY: The following changes expected for less than half the time period
Winds: from the SE (140 degrees) at 23 MPH (20 knots; 10.3 m/s)
gusting to 40 MPH (35 knots; 18.0 m/s)
Visibility: missing
Ceiling: unknown
Clouds: missing
Weather: no significant weather forecast for this period

 MAPA DE AEROPUERTO

 INFORMACIÓN DE PISTA
Pista 12L Longitud 12979 ft Ancho 197 ft
Elevación 6 ft Umbral desplazado 1000 ft Rumbo de pista 123
Pista 30R Longitud 12979 ft Ancho 197 ft
Elevación 6 ft Umbral desplazado 1000 ft Rumbo de pista 303
Pista 12R Longitud 8302 ft Ancho 148 ft
Elevación 7 ft Umbral desplazado 1000 ft Rumbo de pista 123
Pista 30L Longitud 8302 ft Ancho 148 ft
Elevación 6 ft Umbral desplazado 395 ft Rumbo de pista 303

 FRECUANCIAS DEL AEROPUERTO
Tipo APP Nombre APP Frecuencia 127.85 MHZ
Tipo ATIS Nombre ATIS Frecuencia 127.2 MHZ
Tipo GND Nombre GND Frecuencia 121.675 MHZ
Tipo OPS Nombre ATOC Frecuencia 32.175 MHZ
Tipo TWR Nombre TWR Frecuencia 118.5 MHZ

 RADIO AYUDAS DEL AEROPUERTO
Tipo VOR-DME Nombre Bahrain Frecuencia 115300 KHZ
Tipo NDB Nombre Bahrain Frecuencia 395 KHZ



Powered by Virtual Airlines Manager [v2.6.2]